Dati Storici

Data ora Umidita' aria (%) Temperatura aria (°C) Rad globale (W/m²) Gonioanemometro (°) Tacoanemometro (m/s) Pioggia (mm)
04-06-2020 15:30 97.9 % 16.516 -2.318 1.636 0 0
04-06-2020 15:20 97.9 % 16.752 -22.663 2.268 0 0
04-06-2020 15:10 97.9 % 16.791 0.298 2.385 0 0
04-06-2020 15:00 97.9 % 16.9 -14.713 1.192 0 0
04-06-2020 14:50 97.9 % 16.772 -56.286 3.522 0 0
04-06-2020 14:40 97.9 % 16.845 2.029 1.009 0 0
04-06-2020 14:30 97.9 % 16.723 -21.474 1.877 0 0
04-06-2020 14:20 97.9 % 16.574 -47.159 2.693 0 0
04-06-2020 14:10 97.9 % 16.446 -16.632 2.095 0 0
04-06-2020 14:00 97.9 % 16.443 -38.427 0.752 0 0
04-06-2020 13:50 97.9 % 16.226 -19.927 0.732 0 0
04-06-2020 13:40 97.9 % 16.121 -49.513 1.731 0 0
04-06-2020 13:30 97.9 % 16.206 -33.777 2.346 0 0
04-06-2020 13:20 97.9 % 16.234 11.085 1.837 0 0
04-06-2020 13:10 97.9 % 16.125 -18.332 2.343 0 0
04-06-2020 13:00 97.8 % 15.951 -0.384 1.424 0 0
04-06-2020 12:50 97.9 % 16.248 -60.366 1.693 0 0
04-06-2020 12:40 97.8 % 16.218 -45.378 1.419 0 0
04-06-2020 12:30 97.8 % 16.275 15.807 1.011 0 0
04-06-2020 12:20 97.8 % 16.449 -54.083 1.715 0 0

I dati sono presentati in modo automatico a scopo informativo. In seguito a verifica i dati possono subire modifiche o essere invalidati e non riportati negli archivi definitivi.